Time,TemperatureF,DewpointF,PressureIn,WindDirection,WindDirectionDegrees,WindSpeedMPH,WindSpeedGustMPH,Humidity,HourlyPrecipIn,Conditions,Clouds,dailyrainin,SoftwareType,DateUTC
2013-03-19 00:14:00,37.5,38.0,29.84,SSE,151,0.0,-999.0,100,-99.99,,,0.31,weatherlink.com 1.10,2013-03-19 04:14:00,
2013-03-19 00:29:00,37.8,38.0,29.84,SSE,151,0.0,-999.0,100,-99.99,,,0.32,weatherlink.com 1.10,2013-03-19 04:29:00,
2013-03-19 00:44:00,37.9,38.0,29.83,SSE,151,0.0,-999.0,100,-99.99,,,0.32,weatherlink.com 1.10,2013-03-19 04:44:00,
2013-03-19 00:59:00,37.5,38.0,29.83,SSE,151,0.0,-999.0,100,-99.99,,,0.32,weatherlink.com 1.10,2013-03-19 04:59:00,
2013-03-19 01:14:00,38.5,39.0,29.84,SSE,151,0.0,-999.0,100,-99.99,,,0.00,weatherlink.com 1.10,2013-03-19 05:14:00,
2013-03-19 01:29:00,38.2,38.0,29.82,SSE,151,0.0,-999.0,100,-99.99,,,0.01,weatherlink.com 1.10,2013-03-19 05:29:00,
2013-03-19 01:44:00,37.8,38.0,29.82,SSE,151,0.0,-999.0,100,-99.99,,,0.01,weatherlink.com 1.10,2013-03-19 05:44:00,
2013-03-19 02:00:00,37.2,37.0,29.82,SSE,151,0.0,-999.0,100,-99.99,,,0.01,weatherlink.com 1.10,2013-03-19 06:00:00,
2013-03-19 02:15:00,36.9,37.0,29.82,SSE,151,0.0,-999.0,100,-99.99,,,0.01,weatherlink.com 1.10,2013-03-19 06:15:00,
2013-03-19 02:30:00,37.0,37.0,29.81,SSE,151,0.0,-999.0,100,-99.99,,,0.01,weatherlink.com 1.10,2013-03-19 06:30:00,
2013-03-19 02:45:00,37.5,38.0,29.81,SSE,154,0.0,-999.0,100,-99.99,,,0.01,weatherlink.com 1.10,2013-03-19 06:45:00,
2013-03-19 03:00:00,38.0,38.0,29.81,WSW,247,0.0,-999.0,100,-99.99,,,0.01,weatherlink.com 1.10,2013-03-19 07:00:00,
2013-03-19 03:15:00,38.5,39.0,29.81,South,188,0.0,-999.0,100,-99.99,,,0.01,weatherlink.com 1.10,2013-03-19 07:15:00,
2013-03-19 03:30:00,39.9,40.0,29.80,SSE,152,3.0,-999.0,100,-99.99,,,0.01,weatherlink.com 1.10,2013-03-19 07:30:00,
2013-03-19 03:45:00,42.3,42.0,29.79,South,179,5.0,-999.0,100,-99.99,,,0.01,weatherlink.com 1.10,2013-03-19 07:45:00,
2013-03-19 04:00:00,43.2,43.0,29.79,WNW,288,1.0,-999.0,100,-99.99,,,0.01,weatherlink.com 1.10,2013-03-19 08:00:00,
2013-03-19 04:15:00,43.5,44.0,29.77,SSE,150,1.0,-999.0,100,-99.99,,,0.01,weatherlink.com 1.10,2013-03-19 08:15:00,
2013-03-19 04:30:00,43.3,43.0,29.78,South,175,0.0,-999.0,100,-99.99,,,0.01,weatherlink.com 1.10,2013-03-19 08:30:00,
2013-03-19 04:45:00,43.3,43.0,29.78,South,191,4.0,-999.0,100,-99.99,,,0.01,weatherlink.com 1.10,2013-03-19 08:45:00,
2013-03-19 05:00:00,43.2,43.0,29.77,South,172,5.0,-999.0,100,-99.99,,,0.01,weatherlink.com 1.10,2013-03-19 09:00:00,
2013-03-19 05:15:00,43.3,43.0,29.78,SE,138,6.0,-999.0,100,-99.99,,,0.01,weatherlink.com 1.10,2013-03-19 09:15:00,
2013-03-19 05:30:00,43.6,44.0,29.79,East,92,2.0,-999.0,100,-99.99,,,0.02,weatherlink.com 1.10,2013-03-19 09:30:00,
2013-03-19 05:45:00,43.3,43.0,29.80,North,0,0.0,-999.0,100,-99.99,,,0.02,weatherlink.com 1.10,2013-03-19 09:45:00,
2013-03-19 06:00:00,43.2,43.0,29.82,SW,233,3.0,-999.0,100,-99.99,,,0.02,weatherlink.com 1.10,2013-03-19 10:00:00,
2013-03-19 06:15:00,42.8,43.0,29.82,South,176,4.0,-999.0,100,-99.99,,,0.02,weatherlink.com 1.10,2013-03-19 10:15:00,
2013-03-19 06:30:00,42.2,42.0,29.82,WNW,295,1.0,-999.0,100,-99.99,,,0.02,weatherlink.com 1.10,2013-03-19 10:30:00,
2013-03-19 06:45:00,40.9,41.0,29.83,SSE,165,5.0,-999.0,100,-99.99,,,0.02,weatherlink.com 1.10,2013-03-19 10:45:00,
2013-03-19 07:00:00,39.8,40.0,29.83,SE,133,6.0,-999.0,100,-99.99,,,0.02,weatherlink.com 1.10,2013-03-19 11:00:00,
2013-03-19 07:15:00,38.9,39.0,29.85,ESE,120,2.0,-999.0,100,-99.99,,,0.02,weatherlink.com 1.10,2013-03-19 11:15:00,
2013-03-19 07:30:00,37.3,37.0,29.84,SE,140,2.0,-999.0,100,-99.99,,,0.02,weatherlink.com 1.10,2013-03-19 11:30:00,
2013-03-19 07:45:00,36.0,36.0,29.86,South,181,7.0,-999.0,100,-99.99,,,0.02,weatherlink.com 1.10,2013-03-19 11:45:00,
2013-03-19 08:00:00,35.0,35.0,29.88,SSE,164,6.0,-999.0,100,-99.99,,,0.02,weatherlink.com 1.10,2013-03-19 12:00:00,
2013-03-19 08:15:00,34.1,34.0,29.89,SSE,154,2.0,-999.0,100,-99.99,,,0.02,weatherlink.com 1.10,2013-03-19 12:15:00,
2013-03-19 08:30:00,33.4,33.0,29.93,SSW,213,5.0,-999.0,98,-99.99,,,0.02,weatherlink.com 1.10,2013-03-19 12:30:00,
2013-03-19 08:45:00,33.4,32.0,29.94,SSE,154,6.0,-999.0,93,-99.99,,,0.02,weatherlink.com 1.10,2013-03-19 12:45:00,
2013-03-19 09:00:00,33.4,29.0,29.95,SE,127,5.0,-999.0,85,-99.99,,,0.02,weatherlink.com 1.10,2013-03-19 13:00:00,
2013-03-19 09:15:00,33.5,29.0,29.95,NNE,17,5.0,-999.0,83,-99.99,,,0.02,weatherlink.com 1.10,2013-03-19 13:15:00,
2013-03-19 09:30:00,34.0,28.0,29.95,SW,230,3.0,-999.0,80,-99.99,,,0.02,weatherlink.com 1.10,2013-03-19 13:30:00,
2013-03-19 09:45:00,35.0,29.0,29.93,WNW,295,3.0,-999.0,79,-99.99,,,0.02,weatherlink.com 1.10,2013-03-19 13:45:00,
2013-03-19 10:00:00,36.5,29.0,29.93,South,171,6.0,-999.0,75,-99.99,,,0.02,weatherlink.com 1.10,2013-03-19 14:00:00,
2013-03-19 10:16:00,37.3,29.0,29.92,North,4,2.0,-999.0,71,-99.99,,,0.02,weatherlink.com 1.10,2013-03-19 14:16:00,
2013-03-19 10:31:00,37.8,28.0,29.90,West,274,1.0,-999.0,69,-99.99,,,0.02,weatherlink.com 1.10,2013-03-19 14:31:00,
2013-03-19 10:46:00,38.9,29.0,29.89,SSW,200,0.0,-999.0,68,-99.99,,,0.02,weatherlink.com 1.10,2013-03-19 14:46:00,
2013-03-19 11:01:00,39.8,28.0,29.88,WSW,237,7.0,-999.0,63,-99.99,,,0.02,weatherlink.com 1.10,2013-03-19 15:01:00,
2013-03-19 11:16:00,40.3,28.0,29.88,North,0,6.0,-999.0,62,-99.99,,,0.02,weatherlink.com 1.10,2013-03-19 15:16:00,
2013-03-19 11:31:00,40.6,28.0,29.87,SE,133,1.0,-999.0,60,-99.99,,,0.02,weatherlink.com 1.10,2013-03-19 15:31:00,
2013-03-19 12:16:00,42.3,25.0,29.89,SSE,168,5.0,-999.0,50,-99.99,,,0.02,weatherlink.com 1.10,2013-03-19 16:16:00,
2013-03-19 13:16:00,44.9,28.0,29.88,South,174,4.0,-999.0,51,-99.99,,,0.02,weatherlink.com 1.10,2013-03-19 17:16:00,
2013-03-19 13:46:00,46.7,30.0,29.88,SE,124,0.0,-999.0,52,-99.99,,,0.02,weatherlink.com 1.10,2013-03-19 17:46:00,
2013-03-19 14:01:00,47.3,29.0,29.88,South,169,0.0,-999.0,49,-99.99,,,0.02,weatherlink.com 1.10,2013-03-19 18:01:00,
2013-03-19 14:16:00,47.1,28.0,29.88,SSE,164,4.0,-999.0,48,-99.99,,,0.02,weatherlink.com 1.10,2013-03-19 18:16:00,
2013-03-19 14:31:00,47.6,28.0,29.89,SE,143,12.0,-999.0,47,-99.99,,,0.02,weatherlink.com 1.10,2013-03-19 18:31:00,
2013-03-19 14:46:00,47.9,28.0,29.87,SSE,157,2.0,-999.0,46,-99.99,,,0.02,weatherlink.com 1.10,2013-03-19 18:46:00,
2013-03-19 15:01:00,47.6,28.0,29.88,SSE,151,4.0,-999.0,47,-99.99,,,0.02,weatherlink.com 1.10,2013-03-19 19:01:00,
2013-03-19 15:16:00,48.0,28.0,29.87,SE,128,3.0,-999.0,46,-99.99,,,0.02,weatherlink.com 1.10,2013-03-19 19:16:00,
2013-03-19 15:31:00,48.5,27.0,29.84,WSW,239,1.0,-999.0,43,-99.99,,,0.02,weatherlink.com 1.10,2013-03-19 19:31:00,
2013-03-19 15:46:00,48.5,27.0,29.84,West,275,2.0,-999.0,44,-99.99,,,0.02,weatherlink.com 1.10,2013-03-19 19:46:00,
2013-03-19 16:01:00,49.8,28.0,29.84,SSE,161,0.0,-999.0,43,-99.99,,,0.02,weatherlink.com 1.10,2013-03-19 20:01:00,
2013-03-19 16:16:00,48.9,23.0,29.86,NW,319,0.0,-999.0,37,-99.99,,,0.02,weatherlink.com 1.10,2013-03-19 20:16:00,
2013-03-19 16:31:00,49.1,25.0,29.86,NW,322,2.0,-999.0,39,-99.99,,,0.02,weatherlink.com 1.10,2013-03-19 20:31:00,
2013-03-19 16:46:00,48.0,26.0,29.86,WSW,247,3.0,-999.0,42,-99.99,,,0.02,weatherlink.com 1.10,2013-03-19 20:46:00,
2013-03-19 17:01:00,47.6,26.0,29.86,SW,232,2.0,-999.0,44,-99.99,,,0.02,weatherlink.com 1.10,2013-03-19 21:01:00,
2013-03-19 17:16:00,47.6,25.0,29.86,SW,219,6.0,-999.0,42,-99.99,,,0.02,weatherlink.com 1.10,2013-03-19 21:16:00,
2013-03-19 17:31:00,47.3,23.0,29.88,West,271,6.0,-999.0,39,-99.99,,,0.02,weatherlink.com 1.10,2013-03-19 21:31:00,
2013-03-19 18:01:00,45.5,22.0,29.88,SSW,195,8.0,-999.0,39,-99.99,,,0.02,weatherlink.com 1.10,2013-03-19 22:01:00,
2013-03-19 18:16:00,44.5,17.0,29.89,South,172,3.0,-999.0,33,-99.99,,,0.02,weatherlink.com 1.10,2013-03-19 22:16:00,
2013-03-19 18:31:00,43.6,13.0,29.92,SSE,154,2.0,-999.0,29,-99.99,,,0.02,weatherlink.com 1.10,2013-03-19 22:31:00,
2013-03-19 18:46:00,43.1,14.0,29.93,WNW,284,2.0,-999.0,31,-99.99,,,0.02,weatherlink.com 1.10,2013-03-19 22:46:00,
2013-03-19 19:01:00,42.5,14.0,29.92,SSW,212,1.0,-999.0,32,-99.99,,,0.02,weatherlink.com 1.10,2013-03-19 23:01:00,
2013-03-19 19:16:00,41.8,12.0,29.94,SSE,151,7.0,-999.0,29,-99.99,,,0.02,weatherlink.com 1.10,2013-03-19 23:16:00,
2013-03-19 19:31:00,40.9,10.0,29.97,SSW,195,2.0,-999.0,28,-99.99,,,0.02,weatherlink.com 1.10,2013-03-19 23:31:00,
2013-03-19 19:46:00,40.1,9.0,29.98,South,175,3.0,-999.0,28,-99.99,,,0.02,weatherlink.com 1.10,2013-03-19 23:46:00,
2013-03-19 20:01:00,39.6,10.0,29.98,NNE,14,1.0,-999.0,29,-99.99,,,0.02,weatherlink.com 1.10,2013-03-20 00:01:00,
2013-03-19 20:16:00,39.1,8.0,30.00,SSE,168,1.0,-999.0,28,-99.99,,,0.02,weatherlink.com 1.10,2013-03-20 00:16:00,
2013-03-19 20:31:00,38.8,9.0,30.00,South,171,5.0,-999.0,29,-99.99,,,0.02,weatherlink.com 1.10,2013-03-20 00:31:00,
2013-03-19 20:46:00,38.0,10.0,30.01,West,265,2.0,-999.0,31,-99.99,,,0.02,weatherlink.com 1.10,2013-03-20 00:46:00,
2013-03-19 21:01:00,37.5,9.0,30.02,South,185,2.0,-999.0,31,-99.99,,,0.02,weatherlink.com 1.10,2013-03-20 01:01:00,
2013-03-19 21:17:00,37.2,10.0,30.02,SSE,154,5.0,-999.0,32,-99.99,,,0.02,weatherlink.com 1.10,2013-03-20 01:17:00,
2013-03-19 21:31:00,37.0,9.0,30.00,SSE,165,3.0,-999.0,31,-99.99,,,0.02,weatherlink.com 1.10,2013-03-20 01:31:00,
2013-03-19 21:47:00,36.6,8.0,30.00,SE,130,1.0,-999.0,31,-99.99,,,0.02,weatherlink.com 1.10,2013-03-20 01:47:00,
2013-03-19 22:02:00,36.0,8.0,30.02,South,169,2.0,-999.0,31,-99.99,,,0.02,weatherlink.com 1.10,2013-03-20 02:02:00,
2013-03-19 22:17:00,35.5,10.0,30.02,SW,229,0.0,-999.0,35,-99.99,,,0.02,weatherlink.com 1.10,2013-03-20 02:17:00,
2013-03-19 22:32:00,34.7,10.0,30.02,SSW,195,0.0,-999.0,36,-99.99,,,0.02,weatherlink.com 1.10,2013-03-20 02:32:00,
2013-03-19 22:47:00,34.1,10.0,30.02,South,174,0.0,-999.0,36,-99.99,,,0.02,weatherlink.com 1.10,2013-03-20 02:47:00,
2013-03-19 23:02:00,33.7,9.0,30.02,SSW,196,0.0,-999.0,36,-99.99,,,0.02,weatherlink.com 1.10,2013-03-20 03:02:00,
2013-03-19 23:17:00,33.2,10.0,30.02,SW,234,0.0,-999.0,38,-99.99,,,0.02,weatherlink.com 1.10,2013-03-20 03:17:00,
2013-03-19 23:32:00,32.9,10.0,30.02,SW,234,0.0,-999.0,38,-99.99,,,0.02,weatherlink.com 1.10,2013-03-20 03:32:00,
2013-03-19 23:47:00,32.8,10.0,30.02,SSW,199,0.0,-999.0,38,-99.99,,,0.02,weatherlink.com 1.10,2013-03-20 03:47:00,